TAPATFFF

Guest
Details From TAPA - Antigua V C Bird Intl
To TFFF - Le Lamentin
Flight Number -
Tags Routegen
Created
Modified
Stats Distance 190 nm / 352 km
Max Altitude 0 ft / 0 m
Waypoints 4
Social Downloads 2
Likes 0
Share VATSIM

Download

Looking for another format? Having issues loading an existing format? Contact us
Advertisement - Login to hide

Notes

None

Route

TAPA +17.05_-061.93 +14.51_-061.46 TFFF

ID Type Via Altitude Latitude Longitude Leg Dist Tot Dist Heading (true) Name
O TAPA APT - 0 ft / 0 m 17.13024˚ -61.80367˚ - 0 nm - -
+17.05_-061.93 DME - 0 ft / 0 m 17.05411˚ -61.93245˚ 8 nm 8 nm 238° / 238° -
+14.51_-061.46 DME - 0 ft / 0 m 14.51208˚ -61.45990˚ 155 nm 163 nm 170° / 170° -
O TFFF APT - 0 ft / 0 m 14.58843˚ -61.01831˚ 26 nm 189 nm 80° / 80° -

Altitude Profile

Advertisement - Login to hide

Weather


0- 5 10 15 20 25 30 35+ Temperature / ° C

Clouds and Precipitation
Forecast for 2017-12-11 06:00 UTC. Updated an hour ago

Ground ~20,000 ft ~40,000 ft Winds

TAPA

Details ICAO TAPA (ANU)
Name Antigua - V C Bird Intl
Region Antigua and Barbuda
Timezone America/Antigua (UTC-4.0)
Stats Elevation 62 ft / 19 m (AMSL)
Location 17.136737° -61.792662°
Runways 1
Magnetic Variation 14.766° W

METAR

TAPA 110400Z 04012KT 9000 -SHRA SCT019 BKN038 24/22 Q1014 NOSIG

Decode

TAF

TAF TAPA 102300Z 1100/1124 08009KT 9999 SCT020 PROB40 TEMPO 1102/1116 SHRA

Decode

Departure Runways

ID Width Length Bearing (true) Bearing (mag) Surface Threshold Offset Overrun Length
07 148 ft / 45 m 9,022 ft / 2,750 m 58.28° 73.05° Asphalt 656 ft / 200 m 0 ft / 0 m
25 148 ft / 45 m 9,022 ft / 2,750 m 238.29° 253.06° Asphalt 0 ft / 0 m 0 ft / 0 m

TFFF

Details ICAO TFFF (FDF)
Name Martinique/Aime Cesaire Intl
Region France (Guadeloupe, Martinique, Saint Barthélemy, Saint Martin)
Timezone America/Martinique (UTC-4.0)
Stats Elevation 16 ft / 5 m (AMSL)
Location 14.591032° -61.003173°
Runways 1
Magnetic Variation 15.058° W

METAR

TFFF 110400Z AUTO 00000KT 9999 FEW029 22/20 Q1013 NOSIG

Decode

TAF

TAF TFFF 102300Z 1100/1124 08005KT 9999 SCT035 BECMG 1102/1105 VRB02KT BECMG 1112/1114 10008KT PROB30 TEMPO 1115/1120 SCT018TCU

Decode

Destination Runways

ID Width Length Bearing (true) Bearing (mag) Surface Threshold Offset Overrun Length
09 148 ft / 45 m 9,852 ft / 3,003 m 79.93° 94.99° Asphalt 0 ft / 0 m 0 ft / 0 m
27 148 ft / 45 m 9,852 ft / 3,003 m 259.94° 275.00° Asphalt 820 ft / 250 m 948 ft / 289 m

Approach Navaids

Runway Type Ident Frequency Range Bearing (true) Bearing (mag) Slope Elevation
09 Localiser FF 109.90 MHz 18 nm / 33 km 79.90° 94.96° - 16 ft / 5 m (AMSL)
09 Glidescope FF 109.90 MHz 10 nm / 19 km 79.93° 94.99° 3.00° 16 ft / 5 m (AMSL)

Popular Alternatives